createdAt,value
2018-11-23T00:00:35.084Z,51.53
2018-11-23T00:03:03.947Z,39.23
2018-11-23T00:05:32.728Z,43.13
2018-11-23T00:08:01.573Z,37.87
2018-11-23T00:10:31.671Z,44.93
2018-11-23T00:13:00.482Z,45.70
2018-11-23T00:15:29.288Z,40.70
2018-11-23T00:17:58.079Z,41.03
2018-11-23T00:20:27.873Z,38.33
2018-11-23T00:22:56.692Z,41.20
2018-11-23T00:25:26.124Z,47.77
2018-11-23T00:27:55.290Z,49.03
2018-11-23T00:30:25.302Z,43.87
2018-11-23T00:32:54.427Z,36.93
2018-11-23T00:35:24.619Z,44.00
2018-11-23T00:37:53.886Z,51.50
2018-11-23T00:40:29.905Z,43.30
2018-11-23T00:42:58.925Z,43.37
2018-11-23T00:45:27.725Z,46.73
2018-11-23T00:47:57.241Z,44.03
2018-11-23T00:50:26.562Z,38.63
2018-11-23T00:52:56.420Z,46.17
2018-11-23T00:55:26.085Z,49.83
2018-11-23T00:57:54.910Z,43.57
2018-11-23T01:00:30.755Z,49.53
2018-11-23T01:03:00.183Z,40.70
2018-11-23T01:05:29.006Z,37.13
2018-11-23T01:07:57.811Z,43.23
2018-11-23T01:10:27.683Z,45.47
2018-11-23T01:12:57.197Z,38.33
2018-11-23T01:15:25.982Z,42.57
2018-11-23T01:17:54.790Z,37.63
2018-11-23T01:20:24.822Z,38.20
2018-11-23T01:22:54.261Z,35.87
2018-11-23T01:25:23.973Z,36.83
2018-11-23T01:27:53.521Z,41.23
2018-11-23T01:30:23.660Z,40.33
2018-11-23T01:32:52.492Z,42.27
2018-11-23T01:35:21.292Z,37.13
2018-11-23T01:37:50.093Z,38.33
2018-11-23T01:40:20.173Z,40.73
2018-11-23T01:42:49.337Z,44.43
2018-11-23T01:45:18.191Z,36.80
2018-11-23T01:47:47.018Z,41.87
2018-11-23T01:50:20.749Z,35.83
2018-11-23T01:52:50.322Z,32.33
2018-11-23T01:55:19.837Z,40.30
2018-11-23T01:57:48.769Z,37.73
2018-11-23T02:00:21.762Z,41.37
2018-11-23T02:02:51.218Z,42.37
2018-11-23T02:05:19.999Z,36.40
2018-11-23T02:07:48.785Z,34.30
2018-11-23T02:10:18.191Z,36.17
2018-11-23T02:12:46.993Z,33.83
2018-11-23T02:15:17.758Z,43.07
2018-11-23T02:17:46.909Z,37.17
2018-11-23T02:20:16.842Z,45.43
2018-11-23T02:22:45.655Z,47.93
2018-11-23T02:25:14.447Z,44.50
2018-11-23T02:27:43.233Z,39.13
2018-11-23T02:30:17.007Z,44.83
2018-11-23T02:32:48.738Z,43.30
2018-11-23T02:35:18.030Z,39.40
2018-11-23T02:37:46.866Z,34.90
2018-11-23T02:40:16.823Z,46.33
2018-11-23T02:42:45.761Z,38.73
2018-11-23T02:45:16.432Z,41.07
2018-11-23T02:47:45.797Z,38.43
2018-11-23T02:50:14.621Z,27.53
2018-11-23T02:52:43.848Z,39.43
2018-11-23T02:55:13.803Z,36.10
2018-11-23T02:57:42.621Z,41.43
2018-11-23T03:00:16.500Z,37.77
2018-11-23T03:02:45.292Z,38.60
2018-11-23T03:05:15.773Z,32.30
2018-11-23T03:07:44.687Z,43.27
2018-11-23T03:10:14.420Z,47.30
2018-11-23T03:12:43.812Z,45.47
2018-11-23T03:15:14.481Z,52.97
2018-11-23T03:17:43.808Z,43.63
2018-11-23T03:20:16.878Z,42.57
2018-11-23T03:22:45.680Z,40.60
2018-11-23T03:25:14.879Z,49.40
2018-11-23T03:27:43.669Z,35.77
2018-11-23T03:30:14.992Z,45.57
2018-11-23T03:32:44.452Z,39.70
2018-11-23T03:35:13.297Z,42.23
2018-11-23T03:37:42.282Z,43.30
2018-11-23T03:40:11.093Z,46.57
2018-11-23T03:42:39.983Z,31.73
2018-11-23T03:45:10.192Z,38.33
2018-11-23T03:47:39.243Z,38.97
2018-11-23T03:50:08.860Z,39.40
2018-11-23T03:52:37.683Z,43.27
2018-11-23T03:55:06.518Z,40.37
2018-11-23T03:57:35.572Z,34.37
2018-11-23T04:00:16.889Z,39.88
2018-11-23T04:02:39.114Z,36.37
2018-11-23T04:05:07.998Z,50.13
2018-11-23T04:07:36.798Z,43.00
2018-11-23T04:10:07.024Z,46.37
2018-11-23T04:12:35.819Z,46.63
2018-11-23T04:15:04.885Z,48.00
2018-11-23T04:17:33.682Z,49.27
2018-11-23T04:20:02.523Z,40.93
2018-11-23T04:22:31.342Z,45.47
2018-11-23T04:25:00.142Z,52.70
2018-11-23T04:27:28.927Z,48.70
2018-11-23T04:29:57.736Z,43.67
2018-11-23T04:32:26.530Z,43.40
2018-11-23T04:34:55.370Z,39.00
2018-11-23T04:37:24.239Z,33.87
2018-11-23T04:39:53.067Z,41.60
2018-11-23T04:42:21.902Z,39.57
2018-11-23T04:44:50.738Z,41.33
2018-11-23T04:47:19.537Z,41.43
2018-11-23T04:49:48.343Z,38.37
2018-11-23T04:52:17.179Z,39.63
2018-11-23T04:54:45.981Z,39.67
2018-11-23T04:57:14.794Z,35.30
2018-11-23T04:59:43.591Z,38.67
2018-11-23T05:02:12.405Z,36.00
2018-11-23T05:04:41.213Z,39.83
2018-11-23T05:07:10.008Z,41.20
2018-11-23T05:09:38.821Z,44.43
2018-11-23T05:12:07.643Z,40.07
2018-11-23T05:14:36.443Z,32.43
2018-11-23T05:17:05.340Z,42.00
2018-11-23T05:19:34.149Z,38.27
2018-11-23T05:22:05.735Z,48.70
2018-11-23T05:24:36.933Z,35.73
2018-11-23T05:27:09.589Z,39.63
2018-11-23T05:29:56.349Z,46.40
2018-11-23T05:35:57.506Z,49.67
2018-11-23T05:38:50.880Z,43.37
2018-11-23T05:41:45.263Z,39.90
2018-11-23T05:44:26.061Z,43.57
2018-11-23T05:49:54.159Z,53.50
2018-11-23T05:52:44.390Z,46.50
2018-11-23T05:55:47.656Z,45.93
2018-11-23T05:58:38.361Z,43.43
2018-11-23T06:01:17.766Z,49.90
2018-11-23T06:07:14.601Z,44.43
2018-11-23T06:10:04.782Z,47.97
2018-11-23T06:15:57.036Z,40.73
2018-11-23T06:18:30.769Z,35.27
2018-11-23T06:21:05.774Z,39.33
2018-11-23T06:23:47.638Z,47.20
2018-11-23T06:26:30.832Z,45.00
2018-11-23T06:29:38.894Z,41.17
2018-11-23T06:32:47.776Z,40.27
2018-11-23T06:35:39.908Z,43.73
2018-11-23T06:38:15.583Z,44.87
2018-11-23T06:44:00.047Z,39.17
2018-11-23T06:46:38.024Z,46.30
2018-11-23T06:49:08.872Z,48.93
2018-11-23T06:51:58.776Z,56.87
2018-11-23T06:54:33.430Z,53.40
2018-11-23T06:57:22.285Z,41.67
2018-11-23T06:59:58.260Z,60.87
2018-11-23T07:02:27.766Z,47.43
2018-11-23T07:04:58.227Z,46.63
2018-11-23T07:07:27.945Z,47.80
2018-11-23T07:10:00.647Z,38.77
2018-11-23T07:12:37.477Z,43.93
2018-11-23T07:15:47.396Z,43.30
2018-11-23T07:18:46.283Z,44.53
2018-11-23T07:27:41.484Z,39.33
2018-11-23T07:30:12.337Z,39.40
2018-11-23T07:32:41.128Z,42.63
2018-11-23T07:35:09.955Z,48.27
2018-11-23T07:37:38.860Z,41.90
2018-11-23T07:40:46.514Z,36.47
2018-11-23T07:43:15.324Z,43.03
2018-11-23T07:45:44.111Z,38.60
2018-11-23T07:48:12.918Z,33.00
2018-11-23T07:50:41.756Z,43.70
2018-11-23T07:53:10.543Z,35.53
2018-11-23T07:55:42.340Z,42.90
2018-11-23T07:58:11.277Z,33.00
2018-11-23T08:00:40.108Z,45.57
2018-11-23T08:03:08.911Z,43.23
2018-11-23T08:05:37.757Z,47.43
2018-11-23T08:08:06.654Z,36.90
2018-11-23T08:10:34.737Z,44.17
2018-11-23T08:13:03.644Z,40.77
2018-11-23T08:15:35.627Z,40.73
2018-11-23T08:18:04.428Z,46.10
2018-11-23T08:20:33.566Z,43.07
2018-11-23T08:23:11.223Z,40.80
2018-11-23T08:25:45.944Z,36.67
2018-11-23T08:28:17.063Z,53.60
2018-11-23T08:30:50.251Z,54.33
2018-11-23T08:34:08.817Z,69.43
2018-11-23T08:36:40.987Z,81.33
2018-11-23T08:39:10.715Z,70.43
2018-11-23T08:41:40.202Z,55.73
2018-11-23T08:44:09.101Z,51.03
2018-11-23T08:46:38.076Z,51.87
2018-11-23T08:49:10.627Z,53.53
2018-11-23T08:52:08.645Z,57.77
2018-11-23T08:54:38.250Z,59.73
2018-11-23T08:57:09.068Z,48.33
2018-11-23T08:59:37.931Z,59.77
2018-11-23T09:02:06.924Z,59.43
2018-11-23T09:04:36.243Z,67.97
2018-11-23T09:07:06.299Z,54.60
2018-11-23T09:09:35.974Z,50.13
2018-11-23T09:12:05.484Z,42.47
2018-11-23T09:14:34.422Z,53.13
2018-11-23T09:17:04.537Z,57.10
2018-11-23T09:19:35.572Z,46.80
2018-11-23T09:22:04.512Z,49.37
2018-11-23T09:24:35.792Z,55.03
2018-11-23T09:27:05.120Z,46.80
2018-11-23T09:29:38.822Z,60.10
2018-11-23T09:32:08.064Z,52.03
2018-11-23T09:34:37.223Z,50.37
2018-11-23T09:37:06.116Z,49.17
2018-11-23T09:39:35.324Z,39.67
2018-11-23T09:42:05.485Z,54.13
2018-11-23T09:44:34.593Z,49.53
2018-11-23T09:47:09.990Z,35.53
2018-11-23T09:49:34.118Z,50.27
2018-11-23T09:52:03.269Z,40.20
2018-11-23T09:54:33.459Z,45.03
2018-11-23T09:57:02.362Z,46.87
2018-11-23T09:59:32.350Z,47.17
2018-11-23T10:02:01.586Z,49.73
2018-11-23T10:04:30.470Z,52.03
2018-11-23T10:07:00.110Z,45.33
2018-11-23T10:09:33.505Z,53.80
2018-11-23T10:12:02.680Z,52.90
2018-11-23T10:14:31.865Z,50.37
2018-11-23T10:17:01.043Z,48.63
2018-11-23T10:19:33.413Z,48.27
2018-11-23T10:22:02.664Z,42.33
2018-11-23T10:24:32.621Z,45.87
2018-11-23T10:27:03.819Z,41.30
2018-11-23T10:29:32.992Z,49.13
2018-11-23T10:32:03.223Z,45.87
2018-11-23T10:34:32.853Z,46.07
2018-11-23T10:37:01.742Z,49.20
2018-11-23T10:39:32.733Z,46.80
2018-11-23T10:42:01.613Z,47.13
2018-11-23T10:44:30.753Z,43.80
2018-11-23T10:47:00.243Z,40.97
2018-11-23T10:49:29.671Z,40.40
2018-11-23T10:51:58.882Z,42.10
2018-11-23T10:54:27.763Z,47.00
2018-11-23T10:56:57.284Z,40.20
2018-11-23T10:59:26.682Z,38.70
2018-11-23T11:02:13.600Z,47.53
2018-11-23T11:05:00.648Z,43.70
2018-11-23T11:07:31.813Z,45.40
2018-11-23T11:10:32.580Z,44.97
2018-11-23T11:13:02.735Z,44.10
2018-11-23T11:15:34.328Z,47.33
2018-11-23T11:18:03.832Z,46.13
2018-11-23T11:20:33.015Z,43.93
2018-11-23T11:23:05.561Z,51.40
2018-11-23T11:25:34.971Z,46.57
2018-11-23T11:28:05.824Z,44.90
2018-11-23T11:30:50.156Z,39.80
2018-11-23T11:33:40.210Z,45.43
2018-11-23T11:36:11.791Z,37.00
2018-11-23T11:38:43.567Z,39.73
2018-11-23T11:41:17.552Z,40.73
2018-11-23T11:43:48.495Z,36.50
2018-11-23T11:46:32.721Z,46.30
2018-11-23T11:49:04.714Z,39.30
2018-11-23T11:51:34.947Z,41.83
2018-11-23T11:54:05.062Z,35.50
2018-11-23T11:56:39.204Z,45.57
2018-11-23T11:59:13.547Z,34.33
2018-11-23T12:01:44.429Z,41.83
2018-11-23T12:04:14.824Z,37.33
2018-11-23T12:06:43.981Z,42.13
2018-11-23T12:09:13.109Z,40.70
2018-11-23T12:11:42.291Z,42.83
2018-11-23T12:14:11.689Z,43.00
2018-11-23T12:16:43.302Z,42.47
2018-11-23T12:19:13.217Z,43.50
2018-11-23T12:21:43.152Z,37.80
2018-11-23T12:24:16.170Z,40.57
2018-11-23T12:26:45.393Z,44.67
2018-11-23T12:29:35.820Z,41.70
2018-11-23T12:32:14.174Z,36.37
2018-11-23T12:34:44.382Z,38.37
2018-11-23T12:37:33.759Z,52.37
2018-11-23T12:40:04.393Z,45.67
2018-11-23T12:42:40.595Z,35.17
2018-11-23T12:48:39.697Z,42.80
2018-11-23T12:51:10.943Z,36.50
2018-11-23T12:53:40.124Z,44.23
2018-11-23T12:56:09.995Z,44.17
2018-11-23T12:58:56.942Z,44.40
2018-11-23T13:01:29.896Z,40.23
2018-11-23T13:04:06.959Z,43.83
2018-11-23T13:06:38.220Z,43.57
2018-11-23T13:09:28.677Z,61.33
2018-11-23T13:11:58.831Z,38.13
2018-11-23T13:15:26.820Z,42.20
2018-11-23T13:17:57.346Z,34.77
2018-11-23T13:20:31.064Z,43.73
2018-11-23T13:23:02.903Z,34.50
2018-11-23T13:25:34.511Z,42.03
2018-11-23T13:28:11.041Z,44.27
2018-11-23T13:30:42.585Z,42.23
2018-11-23T13:33:27.026Z,41.40
2018-11-23T13:35:55.907Z,37.03
2018-11-23T13:38:25.092Z,43.60
2018-11-23T13:40:59.657Z,42.53
2018-11-23T13:43:37.080Z,43.93
2018-11-23T13:46:19.134Z,37.93
2018-11-23T13:48:53.401Z,43.07
2018-11-23T13:51:28.424Z,39.50
2018-11-23T13:53:57.977Z,40.03
2018-11-23T13:56:28.992Z,44.37
2018-11-23T13:59:05.610Z,45.07
2018-11-23T14:01:35.579Z,39.30
2018-11-23T14:04:06.138Z,42.93
2018-11-23T14:06:35.716Z,52.33
2018-11-23T14:09:10.341Z,40.93
2018-11-23T14:11:40.958Z,47.77
2018-11-23T14:14:10.641Z,50.27
2018-11-23T14:16:41.356Z,43.50
2018-11-23T14:19:10.233Z,42.83
2018-11-23T14:21:42.359Z,41.43
2018-11-23T14:24:11.284Z,56.33
2018-11-23T14:26:40.467Z,44.33
2018-11-23T14:29:10.083Z,54.90
2018-11-23T14:31:40.042Z,46.77
2018-11-23T14:34:09.217Z,51.83
2018-11-23T14:36:40.285Z,46.57
2018-11-23T14:39:13.101Z,45.03
2018-11-23T14:41:44.188Z,37.40
2018-11-23T14:44:56.114Z,47.30
2018-11-23T14:47:29.266Z,45.43
2018-11-23T14:50:34.290Z,43.73
2018-11-23T14:53:09.951Z,45.50
2018-11-23T14:55:43.613Z,53.63
2018-11-23T14:58:12.565Z,41.83
2018-11-23T15:00:51.839Z,46.97
2018-11-23T15:03:25.122Z,46.60
2018-11-23T15:05:56.912Z,41.53
2018-11-23T15:08:33.027Z,44.43
2018-11-23T15:11:27.270Z,48.43
2018-11-23T15:14:10.507Z,41.70
2018-11-23T15:16:40.327Z,46.70
2018-11-23T15:19:14.114Z,41.73
2018-11-23T15:21:45.363Z,43.60
2018-11-23T15:24:17.491Z,46.10
2018-11-23T15:26:47.191Z,49.50
2018-11-23T15:29:16.365Z,62.00
2018-11-23T15:31:45.268Z,45.60
2018-11-23T15:34:14.155Z,56.07
2018-11-23T15:36:44.654Z,47.10
2018-11-23T15:39:39.052Z,51.97
2018-11-23T15:42:07.890Z,52.57
2018-11-23T15:44:37.048Z,63.07
2018-11-23T15:47:07.414Z,54.27
2018-11-23T15:49:36.373Z,51.13
2018-11-23T15:52:09.178Z,51.77
2018-11-23T15:54:38.071Z,51.53
2018-11-23T15:57:07.092Z,56.07
2018-11-23T15:59:58.670Z,55.07
2018-11-23T16:03:39.571Z,58.10
2018-11-23T16:06:44.757Z,56.07
2018-11-23T16:09:33.844Z,59.13
2018-11-23T16:12:14.877Z,52.57
2018-11-23T16:14:48.024Z,48.40
2018-11-23T16:18:15.676Z,56.30
2018-11-23T16:21:32.060Z,64.03
2018-11-23T16:28:05.789Z,45.77
2018-11-23T16:30:50.190Z,60.07
2018-11-23T16:33:21.640Z,56.40
2018-11-23T16:35:59.373Z,54.77
2018-11-23T16:38:36.207Z,51.43
2018-11-23T16:41:09.095Z,57.03
2018-11-23T16:46:48.336Z,55.23
2018-11-23T16:49:27.330Z,53.20
2018-11-23T16:51:59.645Z,61.47
2018-11-23T16:54:29.919Z,52.17
2018-11-23T16:57:04.567Z,50.20
2018-11-23T16:59:38.101Z,56.50
2018-11-23T17:02:26.697Z,50.00
2018-11-23T17:04:57.265Z,53.27
2018-11-23T17:07:32.808Z,63.33
2018-11-23T17:10:03.310Z,62.70
2018-11-23T17:12:55.525Z,51.23
2018-11-23T17:15:29.797Z,52.90
2018-11-23T17:17:58.578Z,58.10
2018-11-23T17:20:40.849Z,58.40
2018-11-23T17:23:12.409Z,72.40
2018-11-23T17:25:50.438Z,61.63
2018-11-23T17:28:27.976Z,54.13
2018-11-23T17:31:02.196Z,61.23
2018-11-23T17:33:35.940Z,54.77
2018-11-23T17:39:10.715Z,58.87
2018-11-23T17:41:40.575Z,49.87
2018-11-23T17:44:33.942Z,55.30
2018-11-23T17:47:13.362Z,54.83
2018-11-23T17:49:45.149Z,59.20
2018-11-23T17:52:34.517Z,55.23
2018-11-23T17:55:04.363Z,55.97
2018-11-23T17:57:33.229Z,51.13
2018-11-23T18:00:02.486Z,65.57
2018-11-23T18:02:31.408Z,63.67
2018-11-23T18:05:07.179Z,57.13
2018-11-23T18:07:30.024Z,69.77
2018-11-23T18:09:58.877Z,61.87
2018-11-23T18:12:27.765Z,53.23
2018-11-23T18:14:56.639Z,57.77
2018-11-23T18:17:25.574Z,50.87
2018-11-23T18:19:55.740Z,57.23
2018-11-23T18:22:24.864Z,58.80
2018-11-23T18:24:53.756Z,49.57
2018-11-23T18:27:22.640Z,58.67
2018-11-23T18:29:52.573Z,51.63
2018-11-23T18:32:21.493Z,60.70
2018-11-23T18:34:51.075Z,56.67
2018-11-23T18:37:21.011Z,56.63
2018-11-23T18:39:49.878Z,60.23
2018-11-23T18:42:19.868Z,53.87
2018-11-23T18:44:48.748Z,53.67
2018-11-23T18:47:17.992Z,49.83
2018-11-23T18:49:46.880Z,66.50
2018-11-23T18:52:15.821Z,47.03
2018-11-23T18:54:45.037Z,61.60
2018-11-23T18:57:14.303Z,57.50
2018-11-23T18:59:43.269Z,48.40
2018-11-23T19:02:14.102Z,58.77
2018-11-23T19:04:44.058Z,64.57
2018-11-23T19:07:14.754Z,59.00
2018-11-23T19:09:45.655Z,64.27
2018-11-23T19:12:15.222Z,57.87
2018-11-23T19:14:44.745Z,53.63
2018-11-23T19:17:19.161Z,65.43
2018-11-23T19:19:56.587Z,53.33
2018-11-23T19:22:24.294Z,57.97
2018-11-23T19:25:15.448Z,72.93
2018-11-23T19:27:44.403Z,69.43
2018-11-23T19:30:17.389Z,68.80
2018-11-23T19:32:46.279Z,65.83
2018-11-23T19:35:40.304Z,64.03
2018-11-23T19:38:10.384Z,67.40
2018-11-23T19:40:42.216Z,58.53
2018-11-23T19:43:15.331Z,59.27
2018-11-23T19:45:48.267Z,57.47
2018-11-23T19:48:19.685Z,53.70
2018-11-23T19:50:48.601Z,63.03
2018-11-23T19:53:17.511Z,70.73
2018-11-23T19:55:47.075Z,74.10
2018-11-23T19:58:16.024Z,65.60
2018-11-23T20:00:46.581Z,64.77
2018-11-23T20:03:16.190Z,73.57
2018-11-23T20:05:45.062Z,63.37
2018-11-23T20:08:14.529Z,55.67
2018-11-23T20:11:07.536Z,64.67
2018-11-23T20:13:44.749Z,73.87
2018-11-23T20:16:13.927Z,73.60
2018-11-23T20:18:44.548Z,70.90
2018-11-23T20:21:16.143Z,74.93
2018-11-23T20:23:53.117Z,72.00
2018-11-23T20:26:25.242Z,65.23
2018-11-23T20:28:57.952Z,57.57
2018-11-23T20:31:49.809Z,73.13
2018-11-23T20:34:19.684Z,62.47
2018-11-23T20:36:52.186Z,66.30
2018-11-23T20:39:22.905Z,75.37
2018-11-23T20:41:57.582Z,72.47
2018-11-23T20:44:36.605Z,81.73
2018-11-23T20:47:07.503Z,72.53
2018-11-23T20:49:36.341Z,73.30
2018-11-23T20:52:08.531Z,73.17
2018-11-23T20:54:38.535Z,68.03
2018-11-23T20:57:11.798Z,68.87
2018-11-23T20:59:43.318Z,65.73
2018-11-23T21:02:12.954Z,74.10
2018-11-23T21:04:42.828Z,59.43
2018-11-23T21:07:28.736Z,68.93
2018-11-23T21:10:24.662Z,75.80
2018-11-23T21:13:14.117Z,67.10
2018-11-23T21:15:47.480Z,71.40
2018-11-23T21:18:21.901Z,75.97
2018-11-23T21:20:53.558Z,77.07
2018-11-23T21:23:23.254Z,79.13
2018-11-23T21:25:52.447Z,81.87
2018-11-23T21:28:26.628Z,88.43
2018-11-23T21:31:05.995Z,87.43
2018-11-23T21:34:24.033Z,81.30
2018-11-23T21:37:33.699Z,90.20
2018-11-23T21:40:48.283Z,84.17
2018-11-23T21:44:24.308Z,94.97
2018-11-23T21:54:36.872Z,97.80
2018-11-23T21:57:56.360Z,78.70
2018-11-23T22:00:37.128Z,83.47
2018-11-23T22:03:10.515Z,93.87
2018-11-23T22:05:43.547Z,101.23
2018-11-23T22:11:23.367Z,92.90
2018-11-23T22:13:52.500Z,94.40
2018-11-23T22:16:21.440Z,103.33
2018-11-23T22:18:50.921Z,100.97
2018-11-23T22:21:20.414Z,92.50
2018-11-23T22:24:10.728Z,96.07
2018-11-23T22:26:41.779Z,105.20
2018-11-23T22:30:16.696Z,91.23
2018-11-23T22:46:42.448Z,100.63
2018-11-23T22:53:24.537Z,88.47
2018-11-23T22:56:47.598Z,96.80
2018-11-23T22:59:59.815Z,95.50
2018-11-23T23:06:22.850Z,99.60
2018-11-23T23:16:54.331Z,97.60
2018-11-23T23:19:23.139Z,101.50
2018-11-23T23:21:51.947Z,94.83
2018-11-23T23:24:23.352Z,102.20
2018-11-23T23:26:49.555Z,113.80
2018-11-23T23:29:22.735Z,102.30
2018-11-23T23:31:51.547Z,104.50
2018-11-23T23:34:20.372Z,113.60
2018-11-23T23:36:49.292Z,105.07
2018-11-23T23:39:18.111Z,98.97
2018-11-23T23:41:46.934Z,107.33
2018-11-23T23:44:16.005Z,105.03
2018-11-23T23:46:44.812Z,122.33
2018-11-23T23:49:13.601Z,100.70
2018-11-23T23:51:42.417Z,103.27
2018-11-23T23:54:11.275Z,107.90
2018-11-23T23:56:40.051Z,114.17
2018-11-23T23:59:08.886Z,113.43
